Nautilus — OUYX2 — position and weather

sailwx.info

Track history (hours):
 
Tides and Currents Weather Stations Pressure Air Temp Water Temp Dewpoint Dewpoint Depression Visibility Wind Speed Wind Dir Waves Ship Positions

Nautilus

Last reported at 2015-Aug-28 20:28 UTC. Time now 2015-Aug-29 07:28 UTC.
Position N 59°22' E 017°27'.

Length 120 m; draft 5 m.

Type: Ship. MMSI: 219425000.

Date/timePositionNaut miles runAvg speedWind from/ knotsBaromVisibWave heightAir tempDewpointWater temp
2015-Aug-28 20:28N 59°22' E 017°27'3 0.2
2015-Aug-28 03:31N 59°25' E 017°25'110 8.9
2015-Aug-27 15:07N 57°36' E 017°48'713.0
2015-Aug-27 14:33N 57°28' E 017°47'1313.2
2015-Aug-27 13:33N 57°16' E 017°38'1713.0
2015-Aug-27 12:15N 57°00' E 017°27'912.9
2015-Aug-27 11:33N 56°52' E 017°21'1312.8
2015-Aug-27 10:33N 56°40' E 017°13'1312.9
2015-Aug-27 09:33N 56°28' E 017°04'1313.0
2015-Aug-27 08:33N 56°16' E 016°55'1412.5
2015-Aug-27 07:24N 56°03' E 016°43'1112.7
2015-Aug-27 06:31N 55°58' E 016°26'1212.6
2015-Aug-27 05:33N 55°52' E 016°07'1212.5
2015-Aug-27 04:33N 55°46' E 015°47'1312.7
2015-Aug-27 03:33N 55°39' E 015°27'1313.1
2015-Aug-27 02:33N 55°33' E 015°07'1312.9
2015-Aug-27 01:33N 55°26' E 014°48'1212.2
2015-Aug-27 00:33N 55°19' E 014°31'1212.1
2015-Aug-26 23:33N 55°11' E 014°15'1212.4
2015-Aug-26 22:33N 55°11' E 013°53'1212.3
2015-Aug-26 21:33N 55°11' E 013°32'1212.0
2015-Aug-26 20:33N 55°12' E 013°11'1212.0
2015-Aug-26 19:33N 55°15' E 012°51'10 9.8
2015-Aug-26 18:33N 55°23' E 012°40'1111.3
2015-Aug-26 17:33N 55°34' E 012°42'1110.8
2015-Aug-26 16:33N 55°45' E 012°41'1111.5
2015-Aug-26 15:33N 55°56' E 012°38'1111.3
2015-Aug-26 14:33N 56°07' E 012°32'1312.9
2015-Aug-26 13:33N 56°18' E 012°21'1313.1
2015-Aug-26 12:33N 56°31' E 012°15'1313.1
2015-Aug-26 11:33N 56°44' E 012°09'1212.4
2015-Aug-26 10:33N 56°56' E 012°04'1212.3
2015-Aug-26 09:33N 57°07' E 011°57'1212.0
2015-Aug-26 08:33N 57°18' E 011°47'1111.3
2015-Aug-26 07:33N 57°27' E 011°35'1111.1
2015-Aug-26 06:33N 57°37' E 011°24'1111.2
2015-Aug-26 05:33N 57°48' E 011°21'1110.7
2015-Aug-26 04:33N 57°59' E 011°18'10 9.5
2015-Aug-26 03:33N 58°08' E 011°14'9 8.9
2015-Aug-26 02:33N 58°17' E 011°16'7 6.8
2015-Aug-26 01:33N 58°21' E 011°26'0 0.0
2015-Aug-26 00:29N 58°21' E 011°26'0 0.0
2015-Aug-25 23:32N 58°21' E 011°26'0 0.0
2015-Aug-25 22:29N 58°21' E 011°26'0 0.0
2015-Aug-25 21:23N 58°21' E 011°26'0 0.0
2015-Aug-25 20:32N 58°21' E 011°26'0 0.0
2015-Aug-25 19:29N 58°21' E 011°26'0 0.0
2015-Aug-25 18:23N 58°21' E 011°26'0 0.0
2015-Aug-25 17:29N 58°21' E 011°26'0 0.0
2015-Aug-25 16:32N 58°21' E 011°26'0 0.0
2015-Aug-25 15:29N 58°21' E 011°26'0 0.0
2015-Aug-25 14:29N 58°21' E 011°26'0 0.0
2015-Aug-25 13:32N 58°21' E 011°26'0 0.0
2015-Aug-25 12:29N 58°21' E 011°26'0 0.0
2015-Aug-25 11:23N 58°21' E 011°26'0 0.0
2015-Aug-25 10:32N 58°21' E 011°26'0 0.1
2015-Aug-25 09:33N 58°21' E 011°26'3 3.4
2015-Aug-25 08:33N 58°19' E 011°21'4 3.8
2015-Aug-25 07:33N 58°17' E 011°16'5 5.5
2015-Aug-25 06:34N 58°11' E 011°13'1313.0
2015-Aug-25 05:33N 57°58' E 011°17'1313.2
2015-Aug-25 04:33N 57°45' E 011°21'1313.1
2015-Aug-25 03:33N 57°33' E 011°26'1313.3
2015-Aug-25 02:34N 57°20' E 011°33'1413.6
2015-Aug-25 01:33N 57°07' E 011°40'1313.2
2015-Aug-25 00:33N 56°54' E 011°48'1111.3
2015-Aug-24 23:33N 56°43' E 011°48'1312.8
2015-Aug-24 22:33N 56°35' E 011°30'1 0.0
2015-Aug-23 21:33N 56°36' E 011°31'1212.0
2015-Aug-23 20:34N 56°44' E 011°47'1010.3
2015-Aug-23 19:33N 56°54' E 011°47'1212.0
2015-Aug-23 18:33N 57°05' E 011°39'1211.5
2015-Aug-23 17:33N 57°16' E 011°32'1212.1
2015-Aug-23 16:34N 57°27' E 011°24'1312.7
2015-Aug-23 15:33N 57°40' E 011°22'1312.7
2015-Aug-23 14:34N 57°53' E 011°19'1312.3
2015-Aug-23 13:32N 58°05' E 011°16'1111.5
2015-Aug-23 12:33N 58°16' E 011°16'7 7.4
2015-Aug-23 11:33N 58°21' E 011°26'0 0.0
2015-Aug-23 10:24N 58°21' E 011°26'0 0.0
2015-Aug-23 09:27N 58°21' E 011°26'0 0.0
2015-Aug-23 08:24N 58°21' E 011°26'0 0.0
2015-Aug-23 07:12N 58°21' E 011°26'0 0.0
2015-Aug-23 06:33N 58°21' E 011°26'0 0.0
2015-Aug-23 04:21N 58°21' E 011°26'0 0.0
2015-Aug-23 03:24N 58°21' E 011°26'0 0.0
2015-Aug-23 02:33N 58°21' E 011°26'0 0.0
2015-Aug-23 01:21N 58°21' E 011°26'0 0.0
2015-Aug-23 00:33N 58°21' E 011°26'0 0.0
2015-Aug-22 23:24N 58°21' E 011°26'0 0.0
2015-Aug-22 21:33N 58°21' E 011°26'0 0.0
2015-Aug-22 19:24N 58°21' E 011°26'0 0.0
2015-Aug-22 18:33N 58°21' E 011°26'3 2.8
2015-Aug-22 17:33N 58°19' E 011°22'10 9.8
2015-Aug-22 16:33N 58°11' E 011°11'0 0.4
2015-Aug-22 15:33N 58°11' E 011°12'0 0.0
2015-Aug-22 14:33N 58°11' E 011°12'0 0.0
2015-Aug-22 13:33N 58°11' E 011°12'0 0.0
2015-Aug-22 12:33N 58°11' E 011°11'5 5.4
2015-Aug-22 11:33N 58°06' E 011°15'9 8.5
2015-Aug-22 10:33N 57°58' E 011°19'7 7.4
2015-Aug-22 09:34N 57°50' E 011°22'7 7.4
2015-Aug-22 08:33N 57°43' E 011°26'7 7.3
2015-Aug-22 07:33N 57°37' E 011°34'8 7.7
2015-Aug-22 06:33N 57°40' E 011°47'3 3.0
2015-Aug-22 05:33N 57°41' E 011°52'0 0.0
2015-Aug-22 04:34N 57°41' E 011°52'0 0.0
2015-Aug-22 03:34N 57°41' E 011°52'0 0.0
2015-Aug-22 02:34N 57°41' E 011°52'0 0.0
2015-Aug-22 01:33N 57°41' E 011°52'0 0.0
2015-Aug-22 00:34N 57°41' E 011°52'0 0.0
2015-Aug-21 23:33N 57°41' E 011°52'0 0.0
2015-Aug-21 22:33N 57°41' E 011°52'0 0.0
2015-Aug-21 21:34N 57°41' E 011°52'0 0.0
2015-Aug-21 20:33N 57°41' E 011°52'0 0.0
2015-Aug-21 19:34N 57°41' E 011°52'0 0.0
2015-Aug-21 18:33N 57°41' E 011°52'0 0.0
2015-Aug-21 17:33N 57°41' E 011°52'0 0.0
2015-Aug-21 16:34N 57°41' E 011°52'0 0.0
2015-Aug-21 15:33N 57°41' E 011°52'0 0.0
2015-Aug-21 14:34N 57°41' E 011°52'0 0.0
2015-Aug-21 13:34N 57°41' E 011°52'0 0.0
2015-Aug-21 12:34N 57°41' E 011°52'0 0.0
2015-Aug-21 11:34N 57°41' E 011°52'0 0.0
2015-Aug-21 10:34N 57°41' E 011°52'0 0.0
2015-Aug-21 09:34N 57°41' E 011°52'0 0.0
2015-Aug-21 08:34N 57°41' E 011°52'0 0.0
2015-Aug-21 07:34N 57°41' E 011°52'1 0.7
2015-Aug-21 06:33N 57°41' E 011°51'8 7.6
2015-Aug-21 05:33N 57°36' E 011°40'1 0.8
2015-Aug-21 04:31N 57°35' E 011°41'0 0.0
2015-Aug-21 03:31N 57°35' E 011°41'0 0.0
2015-Aug-21 02:31N 57°35' E 011°41'0 0.0
2015-Aug-21 01:29N 57°35' E 011°41'0 0.0
2015-Aug-21 00:31N 57°35' E 011°41'0 0.0
2015-Aug-20 23:31N 57°35' E 011°41'0 0.0
2015-Aug-20 22:31N 57°35' E 011°41'0 0.1
2015-Aug-20 21:31N 57°35' E 011°41'0 0.1
2015-Aug-20 20:31N 57°35' E 011°41'0 0.0
2015-Aug-20 19:31N 57°35' E 011°41'0 0.0
2015-Aug-20 18:31N 57°35' E 011°41'0 0.0
2015-Aug-20 17:31N 57°35' E 011°41'0 0.0
2015-Aug-20 16:31N 57°35' E 011°41'0 0.0
2015-Aug-20 15:31N 57°35' E 011°41'0 0.0
2015-Aug-20 14:28N 57°35' E 011°41'0 0.0
2015-Aug-20 13:31N 57°35' E 011°41'0 0.0
2015-Aug-20 12:31N 57°35' E 011°41'0 0.0
2015-Aug-20 11:31N 57°35' E 011°41'0 0.1
2015-Aug-20 10:31N 57°35' E 011°41'0 0.0
2015-Aug-20 09:31N 57°35' E 011°41'0 0.0
2015-Aug-20 08:28N 57°35' E 011°41'0 0.0
2015-Aug-20 07:31N 57°35' E 011°41'2 2.5
2015-Aug-20 06:33N 57°36' E 011°36'1211.8
2015-Aug-20 05:33N 57°46' E 011°26'1211.5
2015-Aug-20 04:33N 57°57' E 011°19'1111.4
2015-Aug-20 03:33N 58°08' E 011°14'10 9.6
2015-Aug-20 02:33N 58°17' E 011°18'6 0.9
2015-Aug-19 20:19N 58°21' E 011°26'0 0.0
2015-Aug-19 19:25N 58°21' E 011°26'0 0.0
2015-Aug-19 12:16N 58°21' E 011°26'0 0.0
2015-Aug-19 11:28N 58°21' E 011°26'0 0.0
2015-Aug-19 10:28N 58°21' E 011°26'0 0.0
2015-Aug-19 09:33N 58°21' E 011°26'2 1.8
2015-Aug-19 08:33N 58°20' E 011°23'1 1.2
2015-Aug-19 07:33N 58°20' E 011°21'0 0.0
2015-Aug-19 06:33N 58°20' E 011°21'0 0.0
2015-Aug-19 05:33N 58°20' E 011°21'0 0.0
2015-Aug-19 04:30N 58°20' E 011°21'0 0.0
2015-Aug-19 03:30N 58°20' E 011°21'0 0.0
2015-Aug-19 02:33N 58°20' E 011°21'0 0.0
2015-Aug-19 01:24N 58°20' E 011°21'0 0.0
2015-Aug-19 00:33N 58°20' E 011°21'0 0.0
2015-Aug-18 23:33N 58°20' E 011°21'0 0.0
2015-Aug-18 22:33N 58°20' E 011°21'0 0.0
2015-Aug-18 21:33N 58°20' E 011°21'0 0.0
2015-Aug-18 20:33N 58°20' E 011°21'  
Track history (hours):
 
Tides and Currents Weather Stations Pressure Air Temp Water Temp Dewpoint Dewpoint Depression Visibility Wind Speed Wind Dir Waves Ship Positions

Nautilus

Last reported at 2015-Aug-28 20:28 UTC. Time now 2015-Aug-29 07:28 UTC.
Position N 59°22' E 017°27'.

Length 120 m; draft 5 m.

Type: Ship. MMSI: 219425000.

Date/timePositionNaut miles runAvg speedWind from/ knotsBaromVisibWave heightAir tempDewpointWater temp
2015-Aug-28 20:28N 59°22' E 017°27'3 0.2
2015-Aug-28 03:31N 59°25' E 017°25'110 8.9
2015-Aug-27 15:07N 57°36' E 017°48'713.0
2015-Aug-27 14:33N 57°28' E 017°47'1313.2
2015-Aug-27 13:33N 57°16' E 017°38'1713.0
2015-Aug-27 12:15N 57°00' E 017°27'912.9
2015-Aug-27 11:33N 56°52' E 017°21'1312.8
2015-Aug-27 10:33N 56°40' E 017°13'1312.9
2015-Aug-27 09:33N 56°28' E 017°04'1313.0
2015-Aug-27 08:33N 56°16' E 016°55'1412.5
2015-Aug-27 07:24N 56°03' E 016°43'1112.7
2015-Aug-27 06:31N 55°58' E 016°26'1212.6
2015-Aug-27 05:33N 55°52' E 016°07'1212.5
2015-Aug-27 04:33N 55°46' E 015°47'1312.7
2015-Aug-27 03:33N 55°39' E 015°27'1313.1
2015-Aug-27 02:33N 55°33' E 015°07'1312.9
2015-Aug-27 01:33N 55°26' E 014°48'1212.2
2015-Aug-27 00:33N 55°19' E 014°31'1212.1
2015-Aug-26 23:33N 55°11' E 014°15'1212.4
2015-Aug-26 22:33N 55°11' E 013°53'1212.3
2015-Aug-26 21:33N 55°11' E 013°32'1212.0
2015-Aug-26 20:33N 55°12' E 013°11'1212.0
2015-Aug-26 19:33N 55°15' E 012°51'10 9.8
2015-Aug-26 18:33N 55°23' E 012°40'1111.3
2015-Aug-26 17:33N 55°34' E 012°42'1110.8
2015-Aug-26 16:33N 55°45' E 012°41'1111.5
2015-Aug-26 15:33N 55°56' E 012°38'1111.3
2015-Aug-26 14:33N 56°07' E 012°32'1312.9
2015-Aug-26 13:33N 56°18' E 012°21'1313.1
2015-Aug-26 12:33N 56°31' E 012°15'1313.1
2015-Aug-26 11:33N 56°44' E 012°09'1212.4
2015-Aug-26 10:33N 56°56' E 012°04'1212.3
2015-Aug-26 09:33N 57°07' E 011°57'1212.0
2015-Aug-26 08:33N 57°18' E 011°47'1111.3
2015-Aug-26 07:33N 57°27' E 011°35'1111.1
2015-Aug-26 06:33N 57°37' E 011°24'1111.2
2015-Aug-26 05:33N 57°48' E 011°21'1110.7
2015-Aug-26 04:33N 57°59' E 011°18'10 9.5
2015-Aug-26 03:33N 58°08' E 011°14'9 8.9
2015-Aug-26 02:33N 58°17' E 011°16'7 6.8
2015-Aug-26 01:33N 58°21' E 011°26'0 0.0
2015-Aug-26 00:29N 58°21' E 011°26'0 0.0
2015-Aug-25 23:32N 58°21' E 011°26'0 0.0
2015-Aug-25 22:29N 58°21' E 011°26'0 0.0
2015-Aug-25 21:23N 58°21' E 011°26'0 0.0
2015-Aug-25 20:32N 58°21' E 011°26'0 0.0
2015-Aug-25 19:29N 58°21' E 011°26'0 0.0
2015-Aug-25 18:23N 58°21' E 011°26'0 0.0
2015-Aug-25 17:29N 58°21' E 011°26'0 0.0
2015-Aug-25 16:32N 58°21' E 011°26'0 0.0
2015-Aug-25 15:29N 58°21' E 011°26'0 0.0
2015-Aug-25 14:29N 58°21' E 011°26'0 0.0
2015-Aug-25 13:32N 58°21' E 011°26'0 0.0
2015-Aug-25 12:29N 58°21' E 011°26'0 0.0
2015-Aug-25 11:23N 58°21' E 011°26'0 0.0
2015-Aug-25 10:32N 58°21' E 011°26'0 0.1
2015-Aug-25 09:33N 58°21' E 011°26'3 3.4
2015-Aug-25 08:33N 58°19' E 011°21'4 3.8
2015-Aug-25 07:33N 58°17' E 011°16'5 5.5
2015-Aug-25 06:34N 58°11' E 011°13'1313.0
2015-Aug-25 05:33N 57°58' E 011°17'1313.2
2015-Aug-25 04:33N 57°45' E 011°21'1313.1
2015-Aug-25 03:33N 57°33' E 011°26'1313.3
2015-Aug-25 02:34N 57°20' E 011°33'1413.6
2015-Aug-25 01:33N 57°07' E 011°40'1313.2
2015-Aug-25 00:33N 56°54' E 011°48'1111.3
2015-Aug-24 23:33N 56°43' E 011°48'1312.8
2015-Aug-24 22:33N 56°35' E 011°30'1 0.0
2015-Aug-23 21:33N 56°36' E 011°31'1212.0
2015-Aug-23 20:34N 56°44' E 011°47'1010.3
2015-Aug-23 19:33N 56°54' E 011°47'1212.0
2015-Aug-23 18:33N 57°05' E 011°39'1211.5
2015-Aug-23 17:33N 57°16' E 011°32'1212.1
2015-Aug-23 16:34N 57°27' E 011°24'1312.7
2015-Aug-23 15:33N 57°40' E 011°22'1312.7
2015-Aug-23 14:34N 57°53' E 011°19'1312.3
2015-Aug-23 13:32N 58°05' E 011°16'1111.5
2015-Aug-23 12:33N 58°16' E 011°16'7 7.4
2015-Aug-23 11:33N 58°21' E 011°26'0 0.0
2015-Aug-23 10:24N 58°21' E 011°26'0 0.0
2015-Aug-23 09:27N 58°21' E 011°26'0 0.0
2015-Aug-23 08:24N 58°21' E 011°26'0 0.0
2015-Aug-23 07:12N 58°21' E 011°26'0 0.0
2015-Aug-23 06:33N 58°21' E 011°26'0 0.0
2015-Aug-23 04:21N 58°21' E 011°26'0 0.0
2015-Aug-23 03:24N 58°21' E 011°26'0 0.0
2015-Aug-23 02:33N 58°21' E 011°26'0 0.0
2015-Aug-23 01:21N 58°21' E 011°26'0 0.0
2015-Aug-23 00:33N 58°21' E 011°26'0 0.0
2015-Aug-22 23:24N 58°21' E 011°26'0 0.0
2015-Aug-22 21:33N 58°21' E 011°26'0 0.0
2015-Aug-22 19:24N 58°21' E 011°26'0 0.0
2015-Aug-22 18:33N 58°21' E 011°26'3 2.8
2015-Aug-22 17:33N 58°19' E 011°22'10 9.8
2015-Aug-22 16:33N 58°11' E 011°11'0 0.4
2015-Aug-22 15:33N 58°11' E 011°12'0 0.0
2015-Aug-22 14:33N 58°11' E 011°12'0 0.0
2015-Aug-22 13:33N 58°11' E 011°12'0 0.0
2015-Aug-22 12:33N 58°11' E 011°11'5 5.4
2015-Aug-22 11:33N 58°06' E 011°15'9 8.5
2015-Aug-22 10:33N 57°58' E 011°19'7 7.4
2015-Aug-22 09:34N 57°50' E 011°22'7 7.4
2015-Aug-22 08:33N 57°43' E 011°26'7 7.3
2015-Aug-22 07:33N 57°37' E 011°34'8 7.7
2015-Aug-22 06:33N 57°40' E 011°47'3 3.0
2015-Aug-22 05:33N 57°41' E 011°52'0 0.0
2015-Aug-22 04:34N 57°41' E 011°52'0 0.0
2015-Aug-22 03:34N 57°41' E 011°52'0 0.0
2015-Aug-22 02:34N 57°41' E 011°52'0 0.0
2015-Aug-22 01:33N 57°41' E 011°52'0 0.0
2015-Aug-22 00:34N 57°41' E 011°52'0 0.0
2015-Aug-21 23:33N 57°41' E 011°52'0 0.0
2015-Aug-21 22:33N 57°41' E 011°52'0 0.0
2015-Aug-21 21:34N 57°41' E 011°52'0 0.0
2015-Aug-21 20:33N 57°41' E 011°52'0 0.0
2015-Aug-21 19:34N 57°41' E 011°52'0 0.0
2015-Aug-21 18:33N 57°41' E 011°52'0 0.0
2015-Aug-21 17:33N 57°41' E 011°52'0 0.0
2015-Aug-21 16:34N 57°41' E 011°52'0 0.0
2015-Aug-21 15:33N 57°41' E 011°52'0 0.0
2015-Aug-21 14:34N 57°41' E 011°52'0 0.0
2015-Aug-21 13:34N 57°41' E 011°52'0 0.0
2015-Aug-21 12:34N 57°41' E 011°52'0 0.0
2015-Aug-21 11:34N 57°41' E 011°52'0 0.0
2015-Aug-21 10:34N 57°41' E 011°52'0 0.0
2015-Aug-21 09:34N 57°41' E 011°52'0 0.0
2015-Aug-21 08:34N 57°41' E 011°52'0 0.0
2015-Aug-21 07:34N 57°41' E 011°52'1 0.7
2015-Aug-21 06:33N 57°41' E 011°51'8 7.6
2015-Aug-21 05:33N 57°36' E 011°40'1 0.8
2015-Aug-21 04:31N 57°35' E 011°41'0 0.0
2015-Aug-21 03:31N 57°35' E 011°41'0 0.0
2015-Aug-21 02:31N 57°35' E 011°41'0 0.0
2015-Aug-21 01:29N 57°35' E 011°41'0 0.0
2015-Aug-21 00:31N 57°35' E 011°41'0 0.0
2015-Aug-20 23:31N 57°35' E 011°41'0 0.0
2015-Aug-20 22:31N 57°35' E 011°41'0 0.1
2015-Aug-20 21:31N 57°35' E 011°41'0 0.1
2015-Aug-20 20:31N 57°35' E 011°41'0 0.0
2015-Aug-20 19:31N 57°35' E 011°41'0 0.0
2015-Aug-20 18:31N 57°35' E 011°41'0 0.0
2015-Aug-20 17:31N 57°35' E 011°41'0 0.0
2015-Aug-20 16:31N 57°35' E 011°41'0 0.0
2015-Aug-20 15:31N 57°35' E 011°41'0 0.0
2015-Aug-20 14:28N 57°35' E 011°41'0 0.0
2015-Aug-20 13:31N 57°35' E 011°41'0 0.0
2015-Aug-20 12:31N 57°35' E 011°41'0 0.0
2015-Aug-20 11:31N 57°35' E 011°41'0 0.1
2015-Aug-20 10:31N 57°35' E 011°41'0 0.0
2015-Aug-20 09:31N 57°35' E 011°41'0 0.0
2015-Aug-20 08:28N 57°35' E 011°41'0 0.0
2015-Aug-20 07:31N 57°35' E 011°41'2 2.5
2015-Aug-20 06:33N 57°36' E 011°36'1211.8
2015-Aug-20 05:33N 57°46' E 011°26'1211.5
2015-Aug-20 04:33N 57°57' E 011°19'1111.4
2015-Aug-20 03:33N 58°08' E 011°14'10 9.6
2015-Aug-20 02:33N 58°17' E 011°18'6 0.9
2015-Aug-19 20:19N 58°21' E 011°26'0 0.0
2015-Aug-19 19:25N 58°21' E 011°26'0 0.0
2015-Aug-19 12:16N 58°21' E 011°26'0 0.0
2015-Aug-19 11:28N 58°21' E 011°26'0 0.0
2015-Aug-19 10:28N 58°21' E 011°26'0 0.0
2015-Aug-19 09:33N 58°21' E 011°26'2 1.8
2015-Aug-19 08:33N 58°20' E 011°23'1 1.2
2015-Aug-19 07:33N 58°20' E 011°21'0 0.0
2015-Aug-19 06:33N 58°20' E 011°21'0 0.0
2015-Aug-19 05:33N 58°20' E 011°21'0 0.0
2015-Aug-19 04:30N 58°20' E 011°21'0 0.0
2015-Aug-19 03:30N 58°20' E 011°21'0 0.0
2015-Aug-19 02:33N 58°20' E 011°21'0 0.0
2015-Aug-19 01:24N 58°20' E 011°21'0 0.0
2015-Aug-19 00:33N 58°20' E 011°21'0 0.0
2015-Aug-18 23:33N 58°20' E 011°21'0 0.0
2015-Aug-18 22:33N 58°20' E 011°21'0 0.0
2015-Aug-18 21:33N 58°20' E 011°21'0 0.0
2015-Aug-18 20:33N 58°20' E 011°21'  

Dump ship's entire track history